Time;durP1;ratioP1;P1;durP2;ratioP2;P2;SDS_P1;SDS_P2;PMS_P1;PMS_P2;Temp;Humidity;BMP_temperature;BMP_pressure;BME280_temperature;BME280_humidity;BME280_pressure;Samples;Min_cycle;Max_cycle;Signal;HPM_P1;HPM_P2
2024/02/20 00:02:21;;;;;;;3.95;2.00;;;10.60;99.90;;;;;;5031344;28;20021;-88
2024/02/20 00:04:46;;;;;;;2.88;2.20;;;10.60;99.90;;;;;;5026216;28;20022;-89
2024/02/20 00:07:12;;;;;;;2.83;1.77;;;10.60;99.90;;;;;;5025070;28;20092;-89
2024/02/20 00:09:39;;;;;;;6.43;1.83;;;10.60;99.90;;;;;;5038122;28;20025;-90
2024/02/20 00:12:05;;;;;;;2.95;1.92;;;10.50;99.90;;;;;;5044836;28;20029;-88
2024/02/20 00:14:30;;;;;;;4.07;1.55;;;10.60;99.90;;;;;;5027499;28;20022;-89
2024/02/20 00:16:56;;;;;;;2.22;1.60;;;10.60;99.90;;;;;;5025885;28;20033;-88
2024/02/20 00:19:22;;;;;;;2.67;1.90;;;10.50;99.90;;;;;;5020988;28;20018;-90
2024/02/20 00:21:48;;;;;;;3.15;1.92;;;10.50;99.90;;;;;;5041061;28;20059;-91
2024/02/20 00:24:13;;;;;;;3.70;1.77;;;10.50;99.90;;;;;;5029198;28;20759;-89
2024/02/20 00:26:39;;;;;;;4.28;1.83;;;10.50;99.90;;;;;;5035542;28;20531;-88
2024/02/20 00:29:05;;;;;;;3.33;1.70;;;10.50;99.90;;;;;;5034002;28;20441;-88
2024/02/20 00:31:32;;;;;;;2.65;1.52;;;10.50;99.90;;;;;;5028726;28;20028;-88
2024/02/20 00:34:02;;;;;;;2.50;1.50;;;10.50;99.90;;;;;;5026713;28;20037;-89
2024/02/20 00:36:28;;;;;;;5.47;1.47;;;10.50;99.90;;;;;;5027082;28;20045;-90
2024/02/20 00:38:54;;;;;;;2.67;1.33;;;10.50;99.90;;;;;;5030990;28;20017;-90
2024/02/20 00:41:20;;;;;;;3.90;1.60;;;10.60;99.90;;;;;;5029799;28;20029;-89
2024/02/20 00:43:46;;;;;;;4.75;1.70;;;10.50;99.90;;;;;;5035911;28;20468;-89
2024/02/20 00:46:22;;;;;;;3.55;1.80;;;10.50;99.90;;;;;;5025309;28;20021;-88
2024/02/20 00:48:49;;;;;;;1.98;1.70;;;10.50;99.90;;;;;;5027824;28;20013;-89
2024/02/20 00:51:18;;;;;;;1.80;1.38;;;10.50;99.90;;;;;;5029876;28;20029;-88
2024/02/20 00:53:44;;;;;;;4.90;1.67;;;10.50;99.90;;;;;;5035476;28;20164;-88
2024/02/20 00:56:11;;;;;;;4.10;1.63;;;10.50;99.90;;;;;;5038918;28;20093;-88
2024/02/20 00:58:39;;;;;;;2.17;1.38;;;10.60;99.90;;;;;;5038630;28;20009;-88
2024/02/20 01:01:10;;;;;;;2.40;1.38;;;10.50;99.90;;;;;;5044430;28;20017;-88
2024/02/20 01:03:39;;;;;;;1.95;1.75;;;10.60;99.90;;;;;;5033506;28;20009;-90
2024/02/20 01:06:09;;;;;;;2.78;1.60;;;10.50;99.90;;;;;;5029514;28;20033;-88
2024/02/20 01:08:36;;;;;;;1.73;1.42;;;10.50;99.90;;;;;;5039849;28;20120;-89
2024/02/20 01:11:05;;;;;;;2.22;1.60;;;10.50;99.90;;;;;;5033781;28;20527;-88
2024/02/20 01:13:30;;;;;;;2.40;1.63;;;10.50;99.90;;;;;;5034210;28;20026;-88
2024/02/20 01:15:56;;;;;;;3.30;1.70;;;10.50;99.90;;;;;;5028753;28;20018;-88
2024/02/20 01:18:22;;;;;;;3.00;1.95;;;10.50;99.90;;;;;;5033934;28;20078;-91
2024/02/20 01:20:48;;;;;;;2.05;1.42;;;10.50;99.90;;;;;;5033996;28;20468;-89
2024/02/20 01:23:13;;;;;;;2.90;1.60;;;10.60;99.90;;;;;;5030613;28;20105;-89
2024/02/20 01:25:41;;;;;;;1.88;1.60;;;10.50;99.90;;;;;;5033829;28;20608;-91
2024/02/20 01:28:07;;;;;;;1.67;1.58;;;10.50;99.90;;;;;;5040567;28;20025;-89
2024/02/20 01:30:32;;;;;;;4.03;1.70;;;10.50;99.90;;;;;;5046177;28;20021;-90
2024/02/20 01:32:58;;;;;;;5.25;1.63;;;10.50;99.90;;;;;;5036421;28;20025;-88
2024/02/20 01:35:24;;;;;;;3.83;1.60;;;10.50;99.90;;;;;;5042071;28;20021;-88
2024/02/20 01:37:50;;;;;;;2.97;1.50;;;10.50;99.90;;;;;;5039178;28;20052;-89
2024/02/20 01:40:16;;;;;;;1.83;1.63;;;10.50;99.90;;;;;;5034382;28;20151;-88
2024/02/20 01:42:43;;;;;;;2.17;1.55;;;10.50;99.90;;;;;;5030692;28;20032;-89
2024/02/20 01:45:09;;;;;;;3.38;1.70;;;10.50;99.90;;;;;;5025903;28;20045;-89
2024/02/20 01:47:36;;;;;;;2.70;1.27;;;10.50;99.90;;;;;;5021756;28;20025;-90
2024/02/20 01:50:02;;;;;;;2.88;1.83;;;10.60;99.90;;;;;;5031009;28;20087;-90
2024/02/20 01:52:27;;;;;;;4.18;1.45;;;10.60;99.90;;;;;;5024267;28;20463;-88
2024/02/20 01:54:59;;;;;;;3.00;1.73;;;10.50;99.90;;;;;;5028156;28;20021;-88
2024/02/20 01:57:25;;;;;;;5.22;1.90;;;10.50;99.90;;;;;;5034032;28;20104;-91
2024/02/20 01:59:52;;;;;;;1.95;1.40;;;10.50;99.90;;;;;;5029936;28;20109;-88
2024/02/20 02:02:20;;;;;;;6.50;1.35;;;10.50;99.90;;;;;;5033293;28;20014;-90
2024/02/20 02:04:45;;;;;;;3.10;1.40;;;10.50;99.90;;;;;;5041676;28;20437;-89
2024/02/20 02:07:11;;;;;;;1.52;1.40;;;10.50;99.90;;;;;;5025033;28;20026;-90
2024/02/20 02:09:36;;;;;;;2.13;1.25;;;10.50;99.90;;;;;;5037231;28;20379;-89
2024/02/20 02:12:03;;;;;;;1.67;1.33;;;10.50;99.90;;;;;;5035162;28;20522;-89
2024/02/20 02:14:29;;;;;;;3.10;1.42;;;10.50;99.90;;;;;;5028654;28;20052;-90
2024/02/20 02:16:55;;;;;;;2.20;1.27;;;10.50;99.90;;;;;;5033159;28;20021;-89
2024/02/20 02:19:20;;;;;;;2.45;1.70;;;10.50;99.90;;;;;;5034778;28;20029;-88
2024/02/20 02:21:46;;;;;;;1.33;1.17;;;10.50;99.90;;;;;;5032638;28;20021;-89
2024/02/20 02:24:12;;;;;;;1.52;1.30;;;10.50;99.90;;;;;;5029519;28;20046;-88
2024/02/20 02:26:37;;;;;;;1.83;1.30;;;10.50;99.90;;;;;;5058791;28;20095;-90
2024/02/20 02:29:03;;;;;;;2.45;1.40;;;10.50;99.90;;;;;;5025309;28;20053;-89
2024/02/20 02:31:29;;;;;;;1.55;1.27;;;10.50;99.90;;;;;;5040664;28;20032;-88
2024/02/20 02:33:56;;;;;;;3.88;1.33;;;10.50;99.90;;;;;;5032449;28;20037;-88
2024/02/20 02:36:21;;;;;;;3.70;1.42;;;10.50;99.90;;;;;;5040079;28;20052;-90
2024/02/20 02:38:47;;;;;;;1.48;1.00;;;10.50;99.90;;;;;;5034389;28;20017;-88
2024/02/20 02:41:13;;;;;;;1.05;0.95;;;10.50;99.90;;;;;;5019861;28;20022;-88
2024/02/20 02:43:39;;;;;;;2.17;1.08;;;10.50;99.90;;;;;;5020167;28;20101;-90
2024/02/20 02:46:04;;;;;;;1.63;1.27;;;10.50;99.90;;;;;;5043292;28;20488;-88
2024/02/20 02:48:30;;;;;;;2.33;1.50;;;10.50;99.90;;;;;;5029051;28;20105;-88
2024/02/20 02:50:55;;;;;;;1.63;1.20;;;10.50;99.90;;;;;;5032321;28;20025;-91
2024/02/20 02:53:24;;;;;;;3.80;1.17;;;10.50;99.90;;;;;;5032537;28;20028;-88
2024/02/20 02:55:49;;;;;;;1.67;1.23;;;10.50;99.90;;;;;;5028434;28;20064;-90
2024/02/20 02:58:15;;;;;;;1.98;1.15;;;10.50;99.90;;;;;;5025053;28;20017;-89
2024/02/20 03:00:40;;;;;;;0.90;0.90;;;10.50;99.90;;;;;;5033362;28;20018;-88
2024/02/20 03:03:07;;;;;;;1.85;1.42;;;10.50;99.90;;;;;;5031971;28;20467;-90
2024/02/20 03:05:32;;;;;;;1.30;1.15;;;10.50;99.90;;;;;;5026089;28;20260;-88
2024/02/20 03:07:58;;;;;;;4.03;1.27;;;10.50;99.90;;;;;;5031549;28;20101;-88
2024/02/20 03:10:26;;;;;;;1.88;1.33;;;10.50;99.90;;;;;;5027165;28;20447;-88
2024/02/20 03:12:55;;;;;;;2.97;1.30;;;10.50;99.90;;;;;;5027934;28;20053;-87
2024/02/20 03:15:21;;;;;;;1.00;0.90;;;10.50;99.90;;;;;;5029927;28;20026;-88
2024/02/20 03:17:47;;;;;;;1.75;1.10;;;10.50;99.90;;;;;;5027756;28;20033;-89
2024/02/20 03:20:14;;;;;;;3.45;0.90;;;10.50;99.90;;;;;;5023321;28;20029;-90
2024/02/20 03:22:41;;;;;;;1.20;1.10;;;10.50;99.90;;;;;;5027486;28;20076;-89
2024/02/20 03:25:07;;;;;;;1.33;1.23;;;10.50;99.90;;;;;;5023852;28;20037;-91
2024/02/20 03:27:35;;;;;;;1.80;1.17;;;10.50;99.90;;;;;;5030518;28;20017;-90
2024/02/20 03:30:00;;;;;;;1.13;0.90;;;10.50;99.90;;;;;;5031030;28;20028;-88
2024/02/20 03:32:26;;;;;;;2.28;1.13;;;10.50;99.90;;;;;;5033458;28;20029;-87
2024/02/20 03:34:52;;;;;;;1.42;1.20;;;10.50;99.90;;;;;;5027904;28;20505;-88
2024/02/20 03:37:18;;;;;;;2.03;1.10;;;10.50;99.90;;;;;;5015615;28;20385;-88
2024/02/20 03:39:43;;;;;;;3.40;1.00;;;10.50;99.90;;;;;;5027757;28;20025;-88
2024/02/20 03:42:09;;;;;;;1.33;1.23;;;10.50;99.90;;;;;;5029555;28;20416;-88
2024/02/20 03:44:38;;;;;;;3.75;1.30;;;10.50;99.90;;;;;;5034242;28;20048;-89
2024/02/20 03:47:03;;;;;;;1.67;1.10;;;10.50;99.90;;;;;;5029943;28;20033;-87
2024/02/20 03:49:29;;;;;;;5.78;1.10;;;10.50;99.90;;;;;;5030406;28;20033;-88
2024/02/20 03:51:55;;;;;;;1.98;1.25;;;10.50;99.90;;;;;;5023922;28;20116;-88
2024/02/20 03:54:20;;;;;;;1.73;1.30;;;10.50;99.90;;;;;;5018561;28;20026;-88
2024/02/20 03:56:46;;;;;;;1.88;1.35;;;10.50;99.90;;;;;;5027153;28;20116;-88
2024/02/20 03:59:12;;;;;;;1.42;1.33;;;10.50;99.90;;;;;;5020029;28;20063;-88
2024/02/20 04:01:38;;;;;;;1.52;1.17;;;10.50;99.90;;;;;;5025174;28;20030;-88
2024/02/20 04:04:04;;;;;;;2.33;1.27;;;10.50;99.90;;;;;;5023157;28;20480;-88
2024/02/20 04:06:30;;;;;;;2.95;1.27;;;10.50;99.90;;;;;;5024993;28;20030;-88
2024/02/20 04:08:56;;;;;;;1.60;1.33;;;10.50;99.90;;;;;;5023401;28;20033;-88
2024/02/20 04:11:22;;;;;;;2.20;1.17;;;10.50;99.90;;;;;;5022379;28;20030;-88
2024/02/20 04:13:47;;;;;;;2.53;1.60;;;10.50;99.90;;;;;;5029042;28;20487;-89
2024/02/20 04:16:13;;;;;;;2.45;1.60;;;10.50;99.90;;;;;;5017864;28;20491;-88
2024/02/20 04:18:39;;;;;;;3.08;1.80;;;10.50;99.90;;;;;;5023671;28;20024;-88
2024/02/20 04:21:06;;;;;;;5.70;2.03;;;10.50;99.90;;;;;;5031044;28;20021;-88
2024/02/20 04:23:32;;;;;;;2.20;1.63;;;10.50;99.90;;;;;;5028652;28;20026;-87
2024/02/20 04:25:58;;;;;;;4.70;1.75;;;10.50;99.90;;;;;;5029897;28;20406;-88
2024/02/20 04:28:23;;;;;;;1.88;1.20;;;10.50;99.90;;;;;;5033943;28;20080;-87
2024/02/20 04:30:49;;;;;;;2.00;1.52;;;10.40;99.90;;;;;;5035179;28;20022;-88
2024/02/20 04:33:14;;;;;;;4.50;1.40;;;10.50;99.90;;;;;;5031413;28;20072;-88
2024/02/20 04:35:40;;;;;;;1.38;1.10;;;10.50;99.90;;;;;;5029660;28;20029;-89
2024/02/20 04:38:05;;;;;;;3.40;1.73;;;10.50;99.90;;;;;;5036646;28;20474;-88
2024/02/20 04:40:32;;;;;;;2.88;1.48;;;10.50;99.90;;;;;;5031290;28;20033;-88
2024/02/20 04:42:58;;;;;;;1.55;1.40;;;10.40;99.90;;;;;;5036311;28;20043;-88
2024/02/20 04:45:23;;;;;;;2.45;1.52;;;10.50;99.90;;;;;;5031743;28;20511;-87
2024/02/20 04:47:49;;;;;;;3.63;1.77;;;10.50;99.90;;;;;;5033516;28;20056;-88
2024/02/20 04:50:19;;;;;;;3.65;1.58;;;10.40;99.90;;;;;;5030097;28;20052;-88
2024/02/20 04:52:44;;;;;;;3.58;1.40;;;10.50;99.90;;;;;;5030135;28;20512;-88
2024/02/20 04:55:10;;;;;;;4.78;1.67;;;10.40;99.90;;;;;;5029468;28;20032;-87
2024/02/20 04:57:35;;;;;;;3.20;1.50;;;10.50;99.90;;;;;;5028161;28;20028;-88
2024/02/20 05:00:01;;;;;;;2.55;1.73;;;10.50;99.90;;;;;;5029569;28;20052;-88
2024/02/20 05:02:27;;;;;;;7.10;1.80;;;10.50;99.90;;;;;;5031828;28;20553;-88
2024/02/20 05:04:52;;;;;;;2.58;1.50;;;10.50;99.90;;;;;;5030921;28;20112;-87
2024/02/20 05:07:18;;;;;;;4.35;2.13;;;10.50;99.90;;;;;;5035092;28;20025;-88
2024/02/20 05:09:43;;;;;;;2.00;1.80;;;10.40;99.90;;;;;;5034249;28;20492;-87
2024/02/20 05:12:09;;;;;;;6.22;1.88;;;10.40;99.90;;;;;;5029371;28;20025;-88
2024/02/20 05:14:34;;;;;;;2.75;1.60;;;10.40;99.90;;;;;;5021889;28;20032;-88
2024/02/20 05:17:00;;;;;;;1.88;1.73;;;10.40;99.90;;;;;;5041686;28;20025;-88
2024/02/20 05:19:25;;;;;;;3.70;1.90;;;10.40;99.90;;;;;;5035397;28;20483;-87
2024/02/20 05:21:52;;;;;;;2.75;1.48;;;10.40;99.90;;;;;;5038792;28;20022;-88
2024/02/20 05:24:18;;;;;;;4.50;1.92;;;10.40;99.90;;;;;;5022067;28;20037;-88
2024/02/20 05:26:43;;;;;;;4.00;2.20;;;10.40;99.90;;;;;;5031945;28;20029;-88
2024/02/20 05:29:09;;;;;;;2.67;2.15;;;10.40;99.90;;;;;;5030975;28;20064;-88
2024/02/20 05:31:34;;;;;;;4.03;1.63;;;10.40;99.90;;;;;;5035727;28;20061;-87
2024/02/20 05:34:01;;;;;;;5.82;2.17;;;10.40;99.90;;;;;;5025666;28;20045;-88
2024/02/20 05:36:31;;;;;;;4.97;1.80;;;10.40;99.90;;;;;;5056675;28;20036;-87
2024/02/20 05:39:00;;;;;;;6.88;2.10;;;10.40;99.90;;;;;;5026233;28;20141;-88
2024/02/20 05:41:28;;;;;;;5.05;2.38;;;10.40;99.90;;;;;;5034626;28;20074;-88
2024/02/20 05:43:57;;;;;;;8.68;2.13;;;10.40;99.90;;;;;;5038499;28;20391;-88
2024/02/20 05:46:28;;;;;;;3.25;1.50;;;10.40;99.90;;;;;;5034150;28;20028;-87
2024/02/20 05:48:54;;;;;;;5.57;1.98;;;10.40;99.90;;;;;;5030263;28;20022;-89
2024/02/20 05:51:20;;;;;;;2.97;1.65;;;10.40;99.90;;;;;;5034574;28;20115;-88
2024/02/20 05:53:45;;;;;;;5.38;1.92;;;10.40;99.90;;;;;;5050263;28;20055;-88
2024/02/20 05:56:11;;;;;;;4.75;2.30;;;10.40;99.90;;;;;;5040696;28;20084;-88
2024/02/20 05:58:37;;;;;;;3.33;2.10;;;10.40;99.90;;;;;;5034134;28;20526;-88
2024/02/20 06:01:02;;;;;;;6.97;2.00;;;10.40;99.90;;;;;;5029680;28;20396;-88
2024/02/20 06:03:28;;;;;;;6.28;2.55;;;10.40;99.90;;;;;;5027970;28;20022;-88
2024/02/20 06:05:54;;;;;;;3.08;1.98;;;10.40;99.90;;;;;;5036312;28;20392;-88
2024/02/20 06:08:19;;;;;;;5.28;2.08;;;10.40;99.90;;;;;;5037787;28;20052;-88
2024/02/20 06:10:45;;;;;;;6.30;2.17;;;10.40;99.90;;;;;;5041697;28;20092;-87
2024/02/20 06:13:10;;;;;;;2.03;1.73;;;10.40;99.90;;;;;;5034068;28;20034;-88
2024/02/20 06:15:36;;;;;;;4.88;2.00;;;10.40;99.90;;;;;;5030109;28;20053;-88
2024/02/20 06:18:02;;;;;;;3.63;1.83;;;10.40;99.90;;;;;;5031388;28;20112;-88
2024/02/20 06:20:28;;;;;;;3.15;1.60;;;10.30;99.90;;;;;;5026831;28;20026;-88
2024/02/20 06:22:55;;;;;;;4.50;1.45;;;10.40;99.90;;;;;;5031350;28;20029;-88
2024/02/20 06:25:21;;;;;;;3.50;1.48;;;10.30;99.90;;;;;;5032728;28;20022;-88
2024/02/20 06:27:47;;;;;;;4.10;1.85;;;10.30;99.90;;;;;;5027571;28;20037;-88
2024/02/20 06:30:13;;;;;;;1.83;1.63;;;10.40;99.90;;;;;;5035145;28;20476;-88
2024/02/20 06:32:39;;;;;;;5.05;1.80;;;10.30;99.90;;;;;;5035565;28;20121;-88
2024/02/20 06:35:06;;;;;;;2.83;1.60;;;10.30;99.90;;;;;;5037049;28;20537;-88
2024/02/20 06:37:31;;;;;;;9.40;2.47;;;10.40;99.90;;;;;;5026772;28;20041;-87
2024/02/20 06:39:57;;;;;;;5.40;1.98;;;10.30;99.90;;;;;;5029132;28;20032;-88
2024/02/20 06:42:22;;;;;;;5.07;1.65;;;10.30;99.90;;;;;;5031107;28;20036;-88
2024/02/20 06:44:48;;;;;;;2.70;1.92;;;10.40;99.90;;;;;;5031540;28;20029;-87
2024/02/20 06:47:14;;;;;;;2.65;1.80;;;10.30;99.90;;;;;;5032333;28;20060;-88
2024/02/20 06:49:40;;;;;;;6.93;1.83;;;10.30;99.90;;;;;;5036901;28;20492;-88
2024/02/20 06:52:06;;;;;;;3.45;1.60;;;10.40;99.90;;;;;;5033574;28;20044;-88
2024/02/20 06:54:32;;;;;;;9.05;1.85;;;10.30;99.90;;;;;;5035264;28;20029;-88
2024/02/20 06:56:58;;;;;;;2.85;1.58;;;10.40;99.90;;;;;;5039241;28;20101;-87
2024/02/20 06:59:24;;;;;;;5.60;2.28;;;10.40;99.90;;;;;;5023004;28;20021;-89
2024/02/20 07:01:51;;;;;;;7.55;2.38;;;10.30;99.90;;;;;;5023884;28;20586;-88
2024/02/20 07:04:17;;;;;;;6.38;1.98;;;10.30;99.90;;;;;;5050832;28;20014;-88
2024/02/20 07:06:43;;;;;;;4.22;2.15;;;10.40;99.90;;;;;;5023014;28;20032;-88
2024/02/20 07:09:08;;;;;;;8.30;2.15;;;10.40;99.90;;;;;;5030791;28;20033;-88
2024/02/20 07:11:34;;;;;;;5.03;2.15;;;10.40;99.90;;;;;;5033970;28;20028;-88
2024/02/20 07:13:59;;;;;;;4.18;1.73;;;10.40;99.90;;;;;;5025534;28;20017;-88
2024/02/20 07:16:25;;;;;;;2.90;1.70;;;10.40;99.90;;;;;;5021085;28;20105;-88
2024/02/20 07:18:51;;;;;;;5.35;1.67;;;10.40;99.90;;;;;;5031041;28;20018;-88
2024/02/20 07:21:16;;;;;;;8.38;1.88;;;10.40;99.90;;;;;;5032097;28;20033;-88
2024/02/20 07:23:42;;;;;;;7.65;2.25;;;10.40;99.90;;;;;;5022944;28;20549;-87
2024/02/20 07:26:07;;;;;;;4.90;2.05;;;10.40;99.90;;;;;;5030431;28;20450;-87
2024/02/20 07:28:33;;;;;;;7.18;2.35;;;10.40;99.90;;;;;;5032548;28;20136;-87
2024/02/20 07:30:59;;;;;;;8.40;2.38;;;10.40;99.90;;;;;;5033233;28;20483;-88
2024/02/20 07:33:26;;;;;;;6.20;2.10;;;10.40;99.90;;;;;;5032433;28;20033;-89
2024/02/20 07:35:52;;;;;;;7.50;2.13;;;10.40;99.90;;;;;;5028661;28;20059;-88
2024/02/20 07:38:18;;;;;;;5.38;2.13;;;10.40;99.90;;;;;;5023140;28;20076;-87
2024/02/20 07:40:44;;;;;;;3.00;1.55;;;10.40;99.90;;;;;;5034595;28;20049;-88
2024/02/20 07:43:10;;;;;;;5.30;2.33;;;10.40;99.90;;;;;;5029992;28;20021;-88
2024/02/20 07:45:35;;;;;;;8.40;1.92;;;10.40;99.90;;;;;;5027750;28;20029;-88
2024/02/20 07:48:01;;;;;;;5.32;2.25;;;10.40;99.90;;;;;;5020693;28;20480;-88
2024/02/20 07:50:27;;;;;;;6.07;2.10;;;10.40;99.90;;;;;;5019378;28;20033;-86
2024/02/20 07:52:52;;;;;;;3.85;1.95;;;10.50;99.90;;;;;;5031055;28;20566;-88
2024/02/20 07:55:18;;;;;;;6.57;2.15;;;10.40;99.90;;;;;;5026830;28;20033;-88
2024/02/20 07:57:43;;;;;;;10.00;2.47;;;10.50;99.90;;;;;;5031754;28;20021;-88
2024/02/20 08:00:13;;;;;;;5.07;1.92;;;10.50;99.90;;;;;;5034452;28;20022;-87
2024/02/20 08:02:39;;;;;;;10.73;2.47;;;10.50;99.90;;;;;;5057362;28;20022;-88
2024/02/20 08:05:05;;;;;;;6.68;2.50;;;10.50;99.90;;;;;;5026247;28;20104;-88
2024/02/20 08:07:31;;;;;;;6.75;2.13;;;10.50;99.90;;;;;;5028761;28;20029;-88
2024/02/20 08:09:57;;;;;;;6.05;1.52;;;10.50;99.90;;;;;;5020592;28;20551;-88
2024/02/20 08:12:24;;;;;;;4.45;1.65;;;10.60;99.90;;;;;;5036098;28;20029;-87
2024/02/20 08:14:50;;;;;;;6.40;2.15;;;10.60;99.90;;;;;;5031712;28;20026;-88
2024/02/20 08:17:15;;;;;;;11.80;2.42;;;10.60;99.90;;;;;;5031746;28;20033;-87
2024/02/20 08:19:41;;;;;;;5.60;1.80;;;10.60;99.90;;;;;;5032758;28;20018;-88
2024/02/20 08:22:08;;;;;;;6.80;2.65;;;10.60;99.90;;;;;;5025248;28;20022;-88
2024/02/20 08:24:33;;;;;;;8.82;2.42;;;10.60;99.90;;;;;;5030209;28;20021;-88
2024/02/20 08:27:01;;;;;;;7.28;2.00;;;10.60;99.90;;;;;;5029489;28;20438;-87
2024/02/20 08:29:30;;;;;;;6.47;2.00;;;10.60;99.90;;;;;;5030616;28;20507;-89
2024/02/20 08:31:56;;;;;;;5.05;2.30;;;10.60;99.90;;;;;;5025153;28;20504;-87
2024/02/20 08:34:23;;;;;;;5.28;2.15;;;10.70;99.90;;;;;;5033760;28;20034;-87
2024/02/20 08:36:49;;;;;;;6.35;1.95;;;10.70;99.90;;;;;;5033456;28;20025;-87
2024/02/20 08:39:14;;;;;;;7.70;2.25;;;10.60;99.90;;;;;;5038860;28;20102;-87
2024/02/20 08:41:40;;;;;;;5.30;1.95;;;10.70;99.90;;;;;;5035123;28;20421;-88
2024/02/20 08:44:07;;;;;;;8.02;2.42;;;10.70;99.90;;;;;;5023108;28;20383;-88
2024/02/20 08:46:34;;;;;;;5.45;2.33;;;10.70;99.90;;;;;;5036826;28;20022;-88
2024/02/20 08:48:59;;;;;;;6.88;2.10;;;10.80;99.90;;;;;;5041435;28;20018;-88
2024/02/20 08:51:25;;;;;;;15.80;2.67;;;10.90;99.90;;;;;;5048860;28;20080;-88
2024/02/20 08:53:51;;;;;;;7.03;2.28;;;10.90;99.90;;;;;;5029076;28;20033;-88
2024/02/20 08:56:16;;;;;;;4.22;1.83;;;10.90;99.90;;;;;;5034424;28;20033;-88
2024/02/20 08:58:42;;;;;;;4.88;2.17;;;10.90;99.90;;;;;;5030460;28;20018;-88
2024/02/20 09:01:08;;;;;;;7.10;2.20;;;10.90;99.90;;;;;;5031882;28;20549;-89
2024/02/20 09:03:35;;;;;;;10.80;2.17;;;10.90;99.90;;;;;;5026803;28;20045;-88
2024/02/20 09:06:02;;;;;;;5.38;1.73;;;11.00;99.90;;;;;;5036722;28;20030;-86
2024/02/20 09:08:27;;;;;;;10.70;2.08;;;10.90;99.90;;;;;;5036479;28;20438;-88
2024/02/20 09:10:53;;;;;;;12.55;2.10;;;10.90;99.90;;;;;;5038320;28;20022;-88
2024/02/20 09:13:18;;;;;;;18.20;2.40;;;10.80;99.90;;;;;;5032842;28;20037;-88
2024/02/20 09:15:45;;;;;;;7.93;2.33;;;10.80;99.90;;;;;;5026539;28;20135;-88
2024/02/20 09:18:11;;;;;;;7.93;2.45;;;10.70;99.90;;;;;;5032103;28;20155;-89
2024/02/20 09:20:37;;;;;;;8.02;2.58;;;10.70;99.90;;;;;;5033355;28;20104;-87
2024/02/20 09:23:03;;;;;;;6.50;2.45;;;10.70;99.90;;;;;;5038086;28;20033;-88
2024/02/20 09:25:28;;;;;;;5.28;2.28;;;10.60;99.90;;;;;;5041551;28;20017;-88
2024/02/20 09:27:54;;;;;;;4.57;2.47;;;10.60;99.90;;;;;;5027345;28;20018;-88
2024/02/20 09:30:20;;;;;;;7.53;2.47;;;10.60;99.90;;;;;;5031112;28;20034;-87
2024/02/20 09:32:45;;;;;;;8.60;1.90;;;10.60;99.90;;;;;;5027540;28;20030;-88
2024/02/20 09:35:11;;;;;;;8.85;2.10;;;10.60;99.90;;;;;;5028489;28;20025;-89
2024/02/20 09:37:36;;;;;;;9.90;2.33;;;10.60;99.90;;;;;;5032331;28;20080;-88
2024/02/20 09:40:04;;;;;;;9.85;2.80;;;10.60;99.90;;;;;;5043004;28;20104;-88
2024/02/20 09:42:33;;;;;;;5.75;2.65;;;10.60;99.90;;;;;;5034582;28;20025;-88
2024/02/20 09:44:59;;;;;;;6.07;2.22;;;10.60;99.90;;;;;;5029725;28;20018;-88
2024/02/20 09:47:26;;;;;;;8.55;2.50;;;10.60;99.90;;;;;;5037958;28;20037;-88
2024/02/20 09:49:53;;;;;;;8.93;2.33;;;10.70;99.90;;;;;;5028767;28;20034;-88
2024/02/20 09:52:19;;;;;;;8.10;2.63;;;10.80;99.90;;;;;;5036663;28;20025;-88
2024/02/20 09:54:49;;;;;;;12.95;3.05;;;11.20;99.90;;;;;;5033833;28;20026;-88
2024/02/20 09:57:15;;;;;;;7.60;2.80;;;11.70;99.90;;;;;;5055211;28;20078;-88
2024/02/20 09:59:42;;;;;;;5.50;2.53;;;12.10;99.90;;;;;;5021059;28;20168;-89
2024/02/20 10:02:14;;;;;;;5.65;2.25;;;12.30;99.90;;;;;;5030730;28;20155;-88
2024/02/20 10:04:41;;;;;;;9.52;2.42;;;12.20;99.90;;;;;;5024569;28;20022;-88
2024/02/20 10:07:07;;;;;;;6.18;2.22;;;12.20;99.90;;;;;;5033867;28;20112;-88
2024/02/20 10:09:32;;;;;;;12.10;2.83;;;12.40;99.90;;;;;;5021520;28;20164;-88
2024/02/20 10:11:58;;;;;;;5.43;2.47;;;12.50;99.90;;;;;;5026196;28;20034;-87
2024/02/20 10:14:27;;;;;;;5.60;2.22;;;12.20;99.90;;;;;;5049612;28;20440;-88
2024/02/20 10:17:03;;;;;;;12.93;2.70;;;11.90;99.90;;;;;;5047392;28;20033;-88
2024/02/20 10:19:29;;;;;;;15.05;2.60;;;11.60;99.90;;;;;;5029308;28;20040;-87
2024/02/20 10:21:54;;;;;;;12.43;2.88;;;11.30;99.90;;;;;;5023835;28;20022;-88
2024/02/20 10:24:20;;;;;;;4.72;2.22;;;11.10;99.90;;;;;;5028105;28;20395;-88
2024/02/20 10:26:46;;;;;;;5.75;2.85;;;11.10;99.90;;;;;;5029398;28;20022;-87
2024/02/20 10:29:13;;;;;;;10.13;2.55;;;11.00;99.90;;;;;;5036534;28;20510;-88
2024/02/20 10:31:39;;;;;;;7.38;2.72;;;11.00;99.90;;;;;;5026300;28;20025;-88
2024/02/20 10:34:05;;;;;;;9.23;2.15;;;10.90;99.90;;;;;;5030978;28;20052;-88
2024/02/20 10:36:30;;;;;;;7.43;2.58;;;10.90;99.90;;;;;;5040174;28;20021;-89
2024/02/20 10:39:07;;;;;;;9.25;2.65;;;10.90;99.90;;;;;;5030089;28;20028;-88
2024/02/20 10:41:33;;;;;;;3.78;2.05;;;10.90;99.90;;;;;;5035148;28;20116;-87
2024/02/20 10:43:59;;;;;;;8.65;2.47;;;10.90;99.90;;;;;;5024403;28;20176;-89
2024/02/20 10:46:26;;;;;;;16.67;2.90;;;10.90;99.90;;;;;;5031197;28;20033;-88
2024/02/20 10:48:55;;;;;;;8.25;2.50;;;11.10;99.90;;;;;;5025969;28;20500;-88
2024/02/20 10:51:26;;;;;;;7.63;2.42;;;11.70;99.90;;;;;;5032444;28;20033;-86
2024/02/20 10:53:53;;;;;;;4.90;2.10;;;11.90;99.90;;;;;;5031855;28;20068;-88
2024/02/20 10:56:20;;;;;;;10.15;2.53;;;11.90;99.90;;;;;;5024550;28;20026;-88
2024/02/20 10:58:46;;;;;;;3.92;2.20;;;12.00;99.90;;;;;;5017998;28;20017;-89
2024/02/20 11:01:13;;;;;;;9.05;2.83;;;12.20;99.90;;;;;;5029292;28;20404;-87
2024/02/20 11:03:40;;;;;;;5.15;2.35;;;12.20;99.90;;;;;;5031501;28;20593;-88
2024/02/20 11:06:07;;;;;;;4.53;2.20;;;12.10;99.90;;;;;;5021550;28;20025;-88
2024/02/20 11:08:33;;;;;;;8.23;2.35;;;11.80;99.90;;;;;;5021564;28;20116;-89
2024/02/20 11:11:15;;;;;;;5.45;2.17;;;11.60;99.90;;;;;;5023268;28;20310;-88
2024/02/20 11:13:42;;;;;;;6.47;2.53;;;11.40;99.90;;;;;;5022658;28;20220;-88
2024/02/20 11:16:11;;;;;;;10.43;2.50;;;11.30;99.90;;;;;;5024444;28;20088;-87
2024/02/20 11:18:38;;;;;;;4.13;1.83;;;11.20;99.90;;;;;;5032728;28;20048;-88
2024/02/20 11:21:07;;;;;;;9.05;2.33;;;11.20;99.90;;;;;;5027429;28;20033;-86
2024/02/20 11:23:35;;;;;;;15.05;2.35;;;11.30;99.90;;;;;;5025758;28;20034;-88
2024/02/20 11:26:10;;;;;;;6.55;2.20;;;11.50;99.90;;;;;;5026524;28;20109;-88
2024/02/20 11:28:36;;;;;;;5.47;2.35;;;11.60;99.90;;;;;;5036821;28;20039;-89
2024/02/20 11:31:03;;;;;;;5.07;1.90;;;11.50;99.90;;;;;;5034763;28;20021;-88
2024/02/20 11:33:31;;;;;;;8.75;2.38;;;11.40;99.90;;;;;;5037836;28;20033;-88
2024/02/20 11:35:57;;;;;;;10.02;2.67;;;11.30;99.90;;;;;;5019699;28;20033;-88
2024/02/20 11:38:22;;;;;;;5.57;1.90;;;11.20;99.90;;;;;;5026645;28;20101;-88
2024/02/20 11:40:48;;;;;;;5.60;2.20;;;11.10;99.90;;;;;;5030457;28;20121;-89
2024/02/20 11:43:16;;;;;;;5.50;2.53;;;11.00;99.90;;;;;;5030229;28;20025;-87
2024/02/20 11:45:42;;;;;;;9.60;2.03;;;11.00;99.90;;;;;;5050799;28;20276;-88
2024/02/20 11:48:10;;;;;;;9.20;2.70;;;11.00;99.90;;;;;;5025588;28;20018;-88
2024/02/20 11:50:40;;;;;;;5.65;2.13;;;11.00;99.90;;;;;;5023490;28;20021;-88
2024/02/20 11:53:13;;;;;;;7.57;2.65;;;11.10;99.90;;;;;;5021967;28;20026;-88
2024/02/20 11:55:53;;;;;;;14.32;2.58;;;11.10;99.90;;;;;;5027390;28;20025;-87
2024/02/20 11:58:24;;;;;;;8.73;2.65;;;11.20;99.90;;;;;;5027499;28;20060;-87
2024/02/20 12:00:52;;;;;;;4.50;1.58;;;11.80;99.90;;;;;;5036973;28;20017;-88
2024/02/20 12:03:33;;;;;;;7.30;1.88;;;12.30;99.90;;;;;;5048378;28;20109;-89
2024/02/20 12:06:09;;;;;;;5.93;1.95;;;12.50;99.90;;;;;;5026994;28;20022;-87
2024/02/20 12:08:44;;;;;;;7.25;2.25;;;12.50;99.90;;;;;;5038236;28;20434;-89
2024/02/20 12:11:12;;;;;;;10.65;2.53;;;12.20;99.90;;;;;;5029192;28;20075;-88
2024/02/20 12:13:38;;;;;;;4.10;1.85;;;12.00;99.90;;;;;;5032912;28;20029;-89
2024/02/20 12:16:04;;;;;;;12.45;2.28;;;11.80;99.90;;;;;;5023328;28;20117;-86
2024/02/20 12:18:32;;;;;;;6.30;1.75;;;11.60;99.90;;;;;;5023756;28;20064;-87
2024/02/20 12:21:07;;;;;;;4.18;1.90;;;11.50;99.90;;;;;;5028565;28;20025;-88
2024/02/20 12:23:33;;;;;;;5.88;1.80;;;11.50;99.90;;;;;;5021362;28;20079;-89
2024/02/20 12:26:11;;;;;;;7.60;1.65;;;11.70;99.90;;;;;;5033759;28;20021;-89
2024/02/20 12:28:38;;;;;;;7.00;2.30;;;11.80;99.90;;;;;;5030134;28;20392;-88
2024/02/20 12:31:05;;;;;;;8.48;1.80;;;11.70;99.90;;;;;;5029834;28;20044;-88
2024/02/20 12:33:35;;;;;;;5.18;1.77;;;11.70;99.90;;;;;;5031501;28;20037;-88
2024/02/20 12:36:02;;;;;;;7.57;1.88;;;11.50;99.90;;;;;;5028943;28;20037;-89
2024/02/20 12:38:29;;;;;;;7.60;1.95;;;11.40;99.90;;;;;;5021061;28;20032;-88
2024/02/20 12:40:56;;;;;;;4.95;1.98;;;11.30;99.90;;;;;;5029835;28;20022;-89
2024/02/20 12:43:21;;;;;;;7.15;1.90;;;11.30;99.90;;;;;;5035675;28;20022;-88